Avoca, AR

7:13 AM CDT on March 28, 2017 (GMT -0500)
Avoca | | Change Station

Elev 1348 ft 36.41 °N, 94.07 °W | Updated 9 seconds ago

Overcast
Overcast
50.5 °F
Feels Like 50.5 °F
N
2.0
Wind Variable Wind from East

Today
High -- | Low -- °F
--% Chance of Precip.
Yesterday
High -- | Low -- °F
Precip. -- in
Pressure 30.01 in
Visibility 10.0 miles
Clouds Overcast 1100 ft
Dew Point 49 °F
Humidity 96%
Rainfall 0.00 in
Snow Depth Not available.
7:07 AM 7:35 PM
New Moon, 0% visible
METAR KROG 281158Z 07005KT 10SM OVC011 11/09 A3001 RMK AO2 SLP160 T01060089 10106 20106 53012
Pressure 30.01 in
Visibility 10.0 miles
Clouds Overcast 1100 ft
Dew Point 49 °F
Humidity 96%
Rainfall 0.00 in
Snow Depth Not available.
7:07 AM 7:35 PM
New Moon, 0% visible
METAR KROG 281158Z 07005KT 10SM OVC011 11/09 A3001 RMK AO2 SLP160 T01060089 10106 20106 53012

Get Severe Weather Alerts

Thanks for signing up!

Be on the lookout for a verification email in your inbox.

You'll start receiving the daily forecast at 8 AM.

×

10-Day Weather Forecast

Almanac

Astronomy

Mar. 28, 2017 Rise Set
Actual Time
Civil Twilight
Nautical Twilight
Astronomical Twilight
Moon
Length of Visible Light
Length of Day
Tomorrow will be .
, % of the Moon is Illuminated

Today's Extremes

State Highs State Lows

Community

WunderPhotos

Upload Photos

1,962,540 photos uploaded!

WunderBlog® & News

Nearby

Air Quality

  Air Quality AQ Index Pollutant
Not available.

Snow Depth

Station Depth Elevation

Earthquake Activity

City Distance Mag. Time & Date
Minimum magnitude displayed is 2.5.

Earthquake Activity

City Distance Mag. Time & Date
Minimum magnitude displayed is 2.5.

Coastal Water Temperatures

Place Temperature

Stations

Nearby Weather Stations

Station Location Temp. Windchill Dew Point Humidity Wind Precip. Elev Updated Type
                   

Watches & Warnings

There are currently no watches in effect.